sensor_id;sensor_type;location;lat;lon;timestamp;P1;durP1;ratioP1;P2;durP2;ratioP2
22565;SDS011;11449;51.330;19.378;2023-04-25T00:03:15;9.10;;;5.00;;
22565;SDS011;11449;51.330;19.378;2023-04-25T00:08:26;11.40;;;4.80;;
22565;SDS011;11449;51.330;19.378;2023-04-25T00:13:33;4.30;;;3.10;;
22565;SDS011;11449;51.330;19.378;2023-04-25T00:18:42;5.40;;;4.20;;
22565;SDS011;11449;51.330;19.378;2023-04-25T00:23:50;4.20;;;3.10;;
22565;SDS011;11449;51.330;19.378;2023-04-25T00:28:57;4.80;;;3.20;;
22565;SDS011;11449;51.330;19.378;2023-04-25T00:34:06;4.30;;;2.90;;
22565;SDS011;11449;51.330;19.378;2023-04-25T00:39:14;4.80;;;2.70;;
22565;SDS011;11449;51.330;19.378;2023-04-25T00:44:21;3.50;;;2.60;;
22565;SDS011;11449;51.330;19.378;2023-04-25T00:49:29;3.20;;;2.90;;
22565;SDS011;11449;51.330;19.378;2023-04-25T00:54:37;5.00;;;2.90;;
22565;SDS011;11449;51.330;19.378;2023-04-25T00:59:45;3.80;;;3.10;;
22565;SDS011;11449;51.330;19.378;2023-04-25T01:04:53;4.10;;;2.70;;
22565;SDS011;11449;51.330;19.378;2023-04-25T01:10:01;3.50;;;2.70;;
22565;SDS011;11449;51.330;19.378;2023-04-25T01:15:10;4.90;;;3.10;;
22565;SDS011;11449;51.330;19.378;2023-04-25T01:20:17;3.80;;;2.80;;
22565;SDS011;11449;51.330;19.378;2023-04-25T01:25:27;4.60;;;2.80;;
22565;SDS011;11449;51.330;19.378;2023-04-25T01:30:35;5.50;;;3.40;;
22565;SDS011;11449;51.330;19.378;2023-04-25T01:35:43;6.00;;;3.80;;
22565;SDS011;11449;51.330;19.378;2023-04-25T01:40:55;4.70;;;4.20;;
22565;SDS011;11449;51.330;19.378;2023-04-25T01:46:04;8.00;;;5.00;;
22565;SDS011;11449;51.330;19.378;2023-04-25T01:51:12;8.10;;;4.60;;
22565;SDS011;11449;51.330;19.378;2023-04-25T01:56:21;6.90;;;5.00;;
22565;SDS011;11449;51.330;19.378;2023-04-25T02:01:29;7.90;;;5.10;;
22565;SDS011;11449;51.330;19.378;2023-04-25T02:06:48;6.10;;;4.50;;
22565;SDS011;11449;51.330;19.378;2023-04-25T02:11:59;7.20;;;5.50;;
22565;SDS011;11449;51.330;19.378;2023-04-25T02:17:12;7.90;;;5.60;;
22565;SDS011;11449;51.330;19.378;2023-04-25T02:22:21;8.70;;;5.40;;
22565;SDS011;11449;51.330;19.378;2023-04-25T02:27:29;7.70;;;5.80;;
22565;SDS011;11449;51.330;19.378;2023-04-25T02:32:37;8.20;;;5.70;;
22565;SDS011;11449;51.330;19.378;2023-04-25T02:37:45;6.70;;;4.70;;
22565;SDS011;11449;51.330;19.378;2023-04-25T02:42:52;8.80;;;4.40;;
22565;SDS011;11449;51.330;19.378;2023-04-25T02:48:02;7.10;;;4.60;;
22565;SDS011;11449;51.330;19.378;2023-04-25T02:53:10;5.80;;;4.60;;
22565;SDS011;11449;51.330;19.378;2023-04-25T02:58:21;6.30;;;4.20;;
22565;SDS011;11449;51.330;19.378;2023-04-25T03:03:29;6.80;;;3.80;;
22565;SDS011;11449;51.330;19.378;2023-04-25T03:08:37;5.50;;;4.10;;
22565;SDS011;11449;51.330;19.378;2023-04-25T03:13:45;5.70;;;3.90;;
22565;SDS011;11449;51.330;19.378;2023-04-25T03:18:53;4.80;;;3.70;;
22565;SDS011;11449;51.330;19.378;2023-04-25T03:24:02;5.70;;;4.20;;
22565;SDS011;11449;51.330;19.378;2023-04-25T03:29:10;5.40;;;3.30;;
22565;SDS011;11449;51.330;19.378;2023-04-25T03:34:18;6.00;;;3.60;;
22565;SDS011;11449;51.330;19.378;2023-04-25T03:39:27;6.00;;;3.20;;
22565;SDS011;11449;51.330;19.378;2023-04-25T03:44:34;4.60;;;2.70;;
22565;SDS011;11449;51.330;19.378;2023-04-25T03:49:43;4.60;;;3.20;;
22565;SDS011;11449;51.330;19.378;2023-04-25T03:54:50;5.20;;;3.10;;
22565;SDS011;11449;51.330;19.378;2023-04-25T04:00:00;4.20;;;3.00;;
22565;SDS011;11449;51.330;19.378;2023-04-25T04:05:14;4.60;;;2.80;;
22565;SDS011;11449;51.330;19.378;2023-04-25T04:10:28;3.80;;;3.20;;
22565;SDS011;11449;51.330;19.378;2023-04-25T04:15:36;3.20;;;2.80;;
22565;SDS011;11449;51.330;19.378;2023-04-25T04:20:43;4.90;;;3.30;;
22565;SDS011;11449;51.330;19.378;2023-04-25T04:25:52;4.00;;;3.10;;
22565;SDS011;11449;51.330;19.378;2023-04-25T04:31:16;5.40;;;3.10;;
22565;SDS011;11449;51.330;19.378;2023-04-25T04:36:26;5.50;;;3.40;;
22565;SDS011;11449;51.330;19.378;2023-04-25T04:41:34;5.00;;;3.30;;
22565;SDS011;11449;51.330;19.378;2023-04-25T04:47:04;4.30;;;3.00;;
22565;SDS011;11449;51.330;19.378;2023-04-25T04:52:46;5.60;;;3.50;;
22565;SDS011;11449;51.330;19.378;2023-04-25T04:58:13;5.30;;;3.20;;
22565;SDS011;11449;51.330;19.378;2023-04-25T05:03:41;3.90;;;3.00;;
22565;SDS011;11449;51.330;19.378;2023-04-25T05:09:17;5.10;;;3.40;;
22565;SDS011;11449;51.330;19.378;2023-04-25T05:14:53;6.60;;;3.90;;
22565;SDS011;11449;51.330;19.378;2023-04-25T05:20:13;4.70;;;3.20;;
22565;SDS011;11449;51.330;19.378;2023-04-25T05:25:36;4.40;;;3.50;;
22565;SDS011;11449;51.330;19.378;2023-04-25T05:31:04;6.70;;;3.50;;
22565;SDS011;11449;51.330;19.378;2023-04-25T05:36:26;5.10;;;3.60;;
22565;SDS011;11449;51.330;19.378;2023-04-25T05:41:35;6.40;;;4.00;;
22565;SDS011;11449;51.330;19.378;2023-04-25T05:47:18;6.30;;;3.30;;
22565;SDS011;11449;51.330;19.378;2023-04-25T05:52:36;6.90;;;4.30;;
22565;SDS011;11449;51.330;19.378;2023-04-25T05:57:53;6.30;;;4.60;;
22565;SDS011;11449;51.330;19.378;2023-04-25T06:03:00;10.70;;;6.40;;
22565;SDS011;11449;51.330;19.378;2023-04-25T06:08:09;6.20;;;5.10;;
22565;SDS011;11449;51.330;19.378;2023-04-25T06:13:18;7.20;;;4.50;;
22565;SDS011;11449;51.330;19.378;2023-04-25T06:18:26;12.90;;;8.20;;
22565;SDS011;11449;51.330;19.378;2023-04-25T06:23:34;7.00;;;4.60;;
22565;SDS011;11449;51.330;19.378;2023-04-25T06:28:43;6.60;;;5.30;;
22565;SDS011;11449;51.330;19.378;2023-04-25T06:33:51;5.60;;;4.90;;
22565;SDS011;11449;51.330;19.378;2023-04-25T06:39:03;10.80;;;6.70;;
22565;SDS011;11449;51.330;19.378;2023-04-25T06:44:10;7.30;;;5.80;;
22565;SDS011;11449;51.330;19.378;2023-04-25T06:49:26;9.70;;;5.70;;
22565;SDS011;11449;51.330;19.378;2023-04-25T06:54:34;12.20;;;6.00;;
22565;SDS011;11449;51.330;19.378;2023-04-25T07:00:12;12.20;;;7.60;;
22565;SDS011;11449;51.330;19.378;2023-04-25T07:05:20;7.50;;;5.00;;
22565;SDS011;11449;51.330;19.378;2023-04-25T07:10:29;9.00;;;6.70;;
22565;SDS011;11449;51.330;19.378;2023-04-25T07:15:37;7.70;;;5.50;;
22565;SDS011;11449;51.330;19.378;2023-04-25T07:20:46;14.70;;;8.70;;
22565;SDS011;11449;51.330;19.378;2023-04-25T07:25:54;8.70;;;6.40;;
22565;SDS011;11449;51.330;19.378;2023-04-25T07:31:03;5.80;;;4.10;;
22565;SDS011;11449;51.330;19.378;2023-04-25T07:36:10;7.80;;;5.30;;
22565;SDS011;11449;51.330;19.378;2023-04-25T07:41:20;10.70;;;6.80;;
22565;SDS011;11449;51.330;19.378;2023-04-25T07:46:28;5.60;;;4.20;;
22565;SDS011;11449;51.330;19.378;2023-04-25T07:51:36;21.40;;;11.40;;
22565;SDS011;11449;51.330;19.378;2023-04-25T07:56:45;8.40;;;4.50;;
22565;SDS011;11449;51.330;19.378;2023-04-25T08:01:53;6.00;;;3.90;;
22565;SDS011;11449;51.330;19.378;2023-04-25T08:07:01;6.40;;;4.20;;
22565;SDS011;11449;51.330;19.378;2023-04-25T08:12:30;5.20;;;4.30;;
22565;SDS011;11449;51.330;19.378;2023-04-25T08:17:38;8.20;;;4.40;;
22565;SDS011;11449;51.330;19.378;2023-04-25T08:22:46;6.20;;;4.60;;
22565;SDS011;11449;51.330;19.378;2023-04-25T08:28:05;5.30;;;3.60;;
22565;SDS011;11449;51.330;19.378;2023-04-25T08:33:14;3.70;;;3.30;;
22565;SDS011;11449;51.330;19.378;2023-04-25T08:38:34;6.20;;;3.20;;
22565;SDS011;11449;51.330;19.378;2023-04-25T08:43:43;8.90;;;3.00;;
22565;SDS011;11449;51.330;19.378;2023-04-25T08:48:51;5.10;;;3.50;;
22565;SDS011;11449;51.330;19.378;2023-04-25T08:54:11;6.80;;;3.40;;
22565;SDS011;11449;51.330;19.378;2023-04-25T08:59:19;4.10;;;3.00;;
22565;SDS011;11449;51.330;19.378;2023-04-25T09:04:27;6.30;;;3.40;;
22565;SDS011;11449;51.330;19.378;2023-04-25T09:09:38;7.30;;;3.70;;
22565;SDS011;11449;51.330;19.378;2023-04-25T09:15:07;5.80;;;3.60;;
22565;SDS011;11449;51.330;19.378;2023-04-25T09:20:41;8.50;;;4.80;;
22565;SDS011;11449;51.330;19.378;2023-04-25T09:25:53;11.10;;;5.50;;
22565;SDS011;11449;51.330;19.378;2023-04-25T09:31:01;6.20;;;4.20;;
22565;SDS011;11449;51.330;19.378;2023-04-25T09:36:17;4.80;;;3.90;;
22565;SDS011;11449;51.330;19.378;2023-04-25T09:41:44;4.70;;;3.50;;
22565;SDS011;11449;51.330;19.378;2023-04-25T09:46:54;6.90;;;3.90;;
22565;SDS011;11449;51.330;19.378;2023-04-25T09:52:03;4.60;;;3.30;;
22565;SDS011;11449;51.330;19.378;2023-04-25T09:57:24;9.50;;;4.60;;
22565;SDS011;11449;51.330;19.378;2023-04-25T10:02:32;5.00;;;3.90;;
22565;SDS011;11449;51.330;19.378;2023-04-25T10:07:41;5.70;;;4.20;;
22565;SDS011;11449;51.330;19.378;2023-04-25T10:12:51;5.40;;;3.90;;
22565;SDS011;11449;51.330;19.378;2023-04-25T10:17:59;6.10;;;4.00;;
22565;SDS011;11449;51.330;19.378;2023-04-25T10:23:11;8.40;;;4.30;;
22565;SDS011;11449;51.330;19.378;2023-04-25T10:28:20;5.70;;;3.80;;
22565;SDS011;11449;51.330;19.378;2023-04-25T10:33:38;9.00;;;4.10;;
22565;SDS011;11449;51.330;19.378;2023-04-25T10:38:46;4.70;;;3.80;;
22565;SDS011;11449;51.330;19.378;2023-04-25T10:44:00;7.40;;;3.90;;
22565;SDS011;11449;51.330;19.378;2023-04-25T10:49:09;5.40;;;3.30;;
22565;SDS011;11449;51.330;19.378;2023-04-25T10:54:17;5.00;;;3.20;;
22565;SDS011;11449;51.330;19.378;2023-04-25T10:59:25;4.50;;;3.00;;
22565;SDS011;11449;51.330;19.378;2023-04-25T11:04:35;7.90;;;5.30;;
22565;SDS011;11449;51.330;19.378;2023-04-25T11:09:42;6.20;;;4.00;;
22565;SDS011;11449;51.330;19.378;2023-04-25T11:14:58;7.60;;;3.40;;
22565;SDS011;11449;51.330;19.378;2023-04-25T11:20:07;10.20;;;7.60;;
22565;SDS011;11449;51.330;19.378;2023-04-25T11:25:18;4.20;;;3.10;;
22565;SDS011;11449;51.330;19.378;2023-04-25T11:30:27;4.90;;;2.50;;
22565;SDS011;11449;51.330;19.378;2023-04-25T11:35:36;6.10;;;2.90;;
22565;SDS011;11449;51.330;19.378;2023-04-25T11:40:43;2.40;;;1.70;;
22565;SDS011;11449;51.330;19.378;2023-04-25T11:45:51;3.80;;;2.00;;
22565;SDS011;11449;51.330;19.378;2023-04-25T11:51:00;2.70;;;2.00;;
22565;SDS011;11449;51.330;19.378;2023-04-25T11:56:11;4.50;;;2.20;;
22565;SDS011;11449;51.330;19.378;2023-04-25T12:01:26;6.40;;;2.10;;
22565;SDS011;11449;51.330;19.378;2023-04-25T12:06:34;5.90;;;2.10;;
22565;SDS011;11449;51.330;19.378;2023-04-25T12:11:52;6.50;;;2.50;;
22565;SDS011;11449;51.330;19.378;2023-04-25T12:17:01;4.90;;;2.10;;
22565;SDS011;11449;51.330;19.378;2023-04-25T12:22:22;3.40;;;2.30;;
22565;SDS011;11449;51.330;19.378;2023-04-25T12:32:38;15.20;;;8.20;;
22565;SDS011;11449;51.330;19.378;2023-04-25T12:37:45;4.50;;;2.30;;
22565;SDS011;11449;51.330;19.378;2023-04-25T12:42:53;2.70;;;1.90;;
22565;SDS011;11449;51.330;19.378;2023-04-25T12:48:01;4.40;;;2.20;;
22565;SDS011;11449;51.330;19.378;2023-04-25T12:53:09;3.40;;;2.30;;
22565;SDS011;11449;51.330;19.378;2023-04-25T12:58:18;3.10;;;2.00;;
22565;SDS011;11449;51.330;19.378;2023-04-25T13:03:26;3.20;;;1.80;;
22565;SDS011;11449;51.330;19.378;2023-04-25T13:08:33;3.30;;;1.90;;
22565;SDS011;11449;51.330;19.378;2023-04-25T13:13:42;1.80;;;1.50;;
22565;SDS011;11449;51.330;19.378;2023-04-25T13:18:50;4.00;;;2.30;;
22565;SDS011;11449;51.330;19.378;2023-04-25T13:23:58;5.70;;;3.60;;
22565;SDS011;11449;51.330;19.378;2023-04-25T13:29:06;4.80;;;4.00;;
22565;SDS011;11449;51.330;19.378;2023-04-25T13:34:14;5.10;;;3.00;;
22565;SDS011;11449;51.330;19.378;2023-04-25T13:39:22;2.90;;;2.30;;
22565;SDS011;11449;51.330;19.378;2023-04-25T13:44:29;3.70;;;2.10;;
22565;SDS011;11449;51.330;19.378;2023-04-25T13:49:37;3.60;;;2.00;;
22565;SDS011;11449;51.330;19.378;2023-04-25T13:54:45;5.30;;;2.90;;
22565;SDS011;11449;51.330;19.378;2023-04-25T13:59:53;5.20;;;3.20;;
22565;SDS011;11449;51.330;19.378;2023-04-25T14:05:01;5.20;;;2.70;;
22565;SDS011;11449;51.330;19.378;2023-04-25T14:10:09;5.60;;;3.20;;
22565;SDS011;11449;51.330;19.378;2023-04-25T14:15:17;3.50;;;2.80;;
22565;SDS011;11449;51.330;19.378;2023-04-25T14:20:24;14.00;;;6.50;;
22565;SDS011;11449;51.330;19.378;2023-04-25T14:25:32;12.80;;;7.00;;
22565;SDS011;11449;51.330;19.378;2023-04-25T14:30:40;17.50;;;7.10;;
22565;SDS011;11449;51.330;19.378;2023-04-25T14:35:48;6.40;;;3.40;;
22565;SDS011;11449;51.330;19.378;2023-04-25T14:40:55;6.70;;;4.00;;
22565;SDS011;11449;51.330;19.378;2023-04-25T14:46:03;6.00;;;3.90;;
22565;SDS011;11449;51.330;19.378;2023-04-25T14:51:11;5.30;;;3.20;;
22565;SDS011;11449;51.330;19.378;2023-04-25T14:56:19;5.50;;;3.00;;
22565;SDS011;11449;51.330;19.378;2023-04-25T15:01:26;8.20;;;2.90;;
22565;SDS011;11449;51.330;19.378;2023-04-25T15:06:34;7.90;;;4.50;;
22565;SDS011;11449;51.330;19.378;2023-04-25T15:11:42;6.00;;;3.60;;
22565;SDS011;11449;51.330;19.378;2023-04-25T15:16:49;8.30;;;3.70;;
22565;SDS011;11449;51.330;19.378;2023-04-25T15:21:58;5.50;;;3.80;;
22565;SDS011;11449;51.330;19.378;2023-04-25T15:27:13;6.20;;;3.40;;
22565;SDS011;11449;51.330;19.378;2023-04-25T15:32:25;8.60;;;5.80;;
22565;SDS011;11449;51.330;19.378;2023-04-25T15:37:35;8.20;;;4.20;;
22565;SDS011;11449;51.330;19.378;2023-04-25T15:47:51;7.80;;;4.60;;
22565;SDS011;11449;51.330;19.378;2023-04-25T15:52:59;7.70;;;5.90;;
22565;SDS011;11449;51.330;19.378;2023-04-25T15:58:08;21.90;;;11.10;;
22565;SDS011;11449;51.330;19.378;2023-04-25T16:03:16;34.20;;;18.00;;
22565;SDS011;11449;51.330;19.378;2023-04-25T16:08:24;29.50;;;14.20;;
22565;SDS011;11449;51.330;19.378;2023-04-25T16:13:32;16.80;;;9.70;;
22565;SDS011;11449;51.330;19.378;2023-04-25T16:18:41;10.50;;;6.00;;
22565;SDS011;11449;51.330;19.378;2023-04-25T16:23:49;13.00;;;7.60;;
22565;SDS011;11449;51.330;19.378;2023-04-25T16:28:57;13.20;;;6.30;;
22565;SDS011;11449;51.330;19.378;2023-04-25T16:34:05;10.00;;;5.50;;
22565;SDS011;11449;51.330;19.378;2023-04-25T16:39:13;8.30;;;6.20;;
22565;SDS011;11449;51.330;19.378;2023-04-25T16:44:21;9.60;;;5.30;;
22565;SDS011;11449;51.330;19.378;2023-04-25T16:49:29;9.30;;;5.50;;
22565;SDS011;11449;51.330;19.378;2023-04-25T16:54:36;11.30;;;7.20;;
22565;SDS011;11449;51.330;19.378;2023-04-25T16:59:44;11.10;;;7.30;;
22565;SDS011;11449;51.330;19.378;2023-04-25T17:04:53;11.80;;;6.30;;
22565;SDS011;11449;51.330;19.378;2023-04-25T17:10:02;9.30;;;5.70;;
22565;SDS011;11449;51.330;19.378;2023-04-25T17:15:10;15.10;;;7.90;;
22565;SDS011;11449;51.330;19.378;2023-04-25T17:20:19;11.60;;;6.30;;
22565;SDS011;11449;51.330;19.378;2023-04-25T17:25:28;13.20;;;8.90;;
22565;SDS011;11449;51.330;19.378;2023-04-25T17:30:37;13.10;;;8.00;;
22565;SDS011;11449;51.330;19.378;2023-04-25T17:35:46;13.20;;;8.60;;
22565;SDS011;11449;51.330;19.378;2023-04-25T17:40:54;11.80;;;6.50;;
22565;SDS011;11449;51.330;19.378;2023-04-25T17:46:02;10.30;;;5.60;;
22565;SDS011;11449;51.330;19.378;2023-04-25T17:51:10;10.20;;;6.00;;
22565;SDS011;11449;51.330;19.378;2023-04-25T17:56:18;11.20;;;6.70;;
22565;SDS011;11449;51.330;19.378;2023-04-25T18:01:25;8.60;;;5.60;;
22565;SDS011;11449;51.330;19.378;2023-04-25T18:06:33;12.70;;;7.50;;
22565;SDS011;11449;51.330;19.378;2023-04-25T18:11:41;11.10;;;6.90;;
22565;SDS011;11449;51.330;19.378;2023-04-25T18:16:50;8.70;;;5.80;;
22565;SDS011;11449;51.330;19.378;2023-04-25T18:21:58;14.70;;;7.90;;
22565;SDS011;11449;51.330;19.378;2023-04-25T18:27:06;17.40;;;8.60;;
22565;SDS011;11449;51.330;19.378;2023-04-25T18:32:14;10.50;;;6.00;;
22565;SDS011;11449;51.330;19.378;2023-04-25T18:37:21;9.30;;;4.60;;
22565;SDS011;11449;51.330;19.378;2023-04-25T18:42:29;6.70;;;4.50;;
22565;SDS011;11449;51.330;19.378;2023-04-25T18:47:37;8.00;;;4.50;;
22565;SDS011;11449;51.330;19.378;2023-04-25T18:52:45;10.10;;;5.20;;
22565;SDS011;11449;51.330;19.378;2023-04-25T18:57:52;9.50;;;6.00;;
22565;SDS011;11449;51.330;19.378;2023-04-25T19:03:00;6.50;;;4.70;;
22565;SDS011;11449;51.330;19.378;2023-04-25T19:08:11;9.10;;;6.10;;
22565;SDS011;11449;51.330;19.378;2023-04-25T19:13:19;11.90;;;6.30;;
22565;SDS011;11449;51.330;19.378;2023-04-25T19:18:27;13.40;;;7.60;;
22565;SDS011;11449;51.330;19.378;2023-04-25T19:23:34;14.10;;;7.40;;
22565;SDS011;11449;51.330;19.378;2023-04-25T19:28:42;10.50;;;6.80;;
22565;SDS011;11449;51.330;19.378;2023-04-25T19:33:51;12.20;;;6.60;;
22565;SDS011;11449;51.330;19.378;2023-04-25T19:38:59;12.40;;;6.00;;
22565;SDS011;11449;51.330;19.378;2023-04-25T19:44:10;10.60;;;6.80;;
22565;SDS011;11449;51.330;19.378;2023-04-25T19:49:18;8.40;;;5.80;;
22565;SDS011;11449;51.330;19.378;2023-04-25T19:54:26;8.10;;;5.50;;
22565;SDS011;11449;51.330;19.378;2023-04-25T19:59:34;10.50;;;6.30;;
22565;SDS011;11449;51.330;19.378;2023-04-25T20:04:42;9.40;;;6.10;;
22565;SDS011;11449;51.330;19.378;2023-04-25T20:09:49;10.00;;;5.50;;
22565;SDS011;11449;51.330;19.378;2023-04-25T20:14:57;10.70;;;5.70;;
22565;SDS011;11449;51.330;19.378;2023-04-25T20:20:05;10.20;;;6.10;;
22565;SDS011;11449;51.330;19.378;2023-04-25T20:25:13;8.90;;;5.10;;
22565;SDS011;11449;51.330;19.378;2023-04-25T20:30:21;9.50;;;5.30;;
22565;SDS011;11449;51.330;19.378;2023-04-25T20:35:29;9.80;;;5.40;;
22565;SDS011;11449;51.330;19.378;2023-04-25T20:40:36;10.00;;;5.80;;
22565;SDS011;11449;51.330;19.378;2023-04-25T20:45:44;8.40;;;5.20;;
22565;SDS011;11449;51.330;19.378;2023-04-25T20:50:52;11.10;;;5.30;;
22565;SDS011;11449;51.330;19.378;2023-04-25T20:55:59;11.80;;;6.60;;
22565;SDS011;11449;51.330;19.378;2023-04-25T21:01:07;12.20;;;5.70;;
22565;SDS011;11449;51.330;19.378;2023-04-25T21:06:15;12.90;;;5.70;;
22565;SDS011;11449;51.330;19.378;2023-04-25T21:11:23;10.30;;;5.20;;
22565;SDS011;11449;51.330;19.378;2023-04-25T21:16:30;8.00;;;4.30;;
22565;SDS011;11449;51.330;19.378;2023-04-25T21:21:41;7.80;;;4.70;;
22565;SDS011;11449;51.330;19.378;2023-04-25T21:26:49;10.20;;;4.10;;
22565;SDS011;11449;51.330;19.378;2023-04-25T21:31:57;9.20;;;4.60;;
22565;SDS011;11449;51.330;19.378;2023-04-25T21:37:04;13.90;;;4.50;;
22565;SDS011;11449;51.330;19.378;2023-04-25T21:42:12;11.10;;;5.20;;
22565;SDS011;11449;51.330;19.378;2023-04-25T21:47:20;10.90;;;4.70;;
22565;SDS011;11449;51.330;19.378;2023-04-25T21:52:28;11.10;;;4.70;;
22565;SDS011;11449;51.330;19.378;2023-04-25T21:57:36;10.30;;;4.50;;
22565;SDS011;11449;51.330;19.378;2023-04-25T22:02:43;11.70;;;5.20;;
22565;SDS011;11449;51.330;19.378;2023-04-25T22:07:52;17.30;;;5.90;;
22565;SDS011;11449;51.330;19.378;2023-04-25T22:13:01;11.60;;;6.20;;
22565;SDS011;11449;51.330;19.378;2023-04-25T22:18:08;11.20;;;6.80;;
22565;SDS011;11449;51.330;19.378;2023-04-25T22:23:16;13.30;;;6.80;;
22565;SDS011;11449;51.330;19.378;2023-04-25T22:28:24;14.30;;;7.20;;
22565;SDS011;11449;51.330;19.378;2023-04-25T22:33:31;19.10;;;8.10;;
22565;SDS011;11449;51.330;19.378;2023-04-25T22:38:40;27.50;;;9.30;;
22565;SDS011;11449;51.330;19.378;2023-04-25T22:43:48;20.80;;;7.70;;
22565;SDS011;11449;51.330;19.378;2023-04-25T22:48:56;30.50;;;9.00;;
22565;SDS011;11449;51.330;19.378;2023-04-25T22:54:04;24.70;;;8.50;;
22565;SDS011;11449;51.330;19.378;2023-04-25T22:59:11;19.70;;;8.00;;
22565;SDS011;11449;51.330;19.378;2023-04-25T23:04:19;17.10;;;7.50;;
22565;SDS011;11449;51.330;19.378;2023-04-25T23:09:27;19.60;;;6.80;;
22565;SDS011;11449;51.330;19.378;2023-04-25T23:14:34;17.00;;;7.40;;
22565;SDS011;11449;51.330;19.378;2023-04-25T23:19:42;17.40;;;7.30;;
22565;SDS011;11449;51.330;19.378;2023-04-25T23:24:50;23.00;;;7.70;;
22565;SDS011;11449;51.330;19.378;2023-04-25T23:29:57;18.20;;;6.20;;
22565;SDS011;11449;51.330;19.378;2023-04-25T23:35:05;19.50;;;7.60;;
22565;SDS011;11449;51.330;19.378;2023-04-25T23:40:13;15.60;;;5.50;;
22565;SDS011;11449;51.330;19.378;2023-04-25T23:45:21;16.60;;;6.40;;
22565;SDS011;11449;51.330;19.378;2023-04-25T23:50:30;13.80;;;5.40;;
22565;SDS011;11449;51.330;19.378;2023-04-25T23:55:37;13.20;;;5.60;;
